EST,Max TemperatureF,Mean TemperatureF,Min TemperatureF,Max Dew PointF,MeanDew PointF,Min DewpointF,Max Humidity, Mean Humidity, Min Humidity, Max Sea Level PressureIn, Mean Sea Level PressureIn, Min Sea Level PressureIn, Max VisibilityMiles, Mean VisibilityMiles, Min VisibilityMiles, Max Wind SpeedMPH, Mean Wind SpeedMPH, Max Gust SpeedMPH,PrecipitationIn, CloudCover, Events, WindDirDegrees
2013-1-1,48,45,42,48,44,34,100,94,62,30.12,30.04,29.97,10,5,2,9,2,,0.08,8,Rain,231
2013-1-2,46,42,37,46,38,36,100,93,87,30.18,30.11,29.99,10,10,4,14,8,18,0.01,7,,336
2013-1-3,42,35,28,36,32,28,100,87,61,30.38,30.25,30.16,10,10,7,14,6,17,0.00,3,,338
2013-1-4,44,35,26,28,27,25,100,72,46,30.43,30.38,30.34,10,10,10,13,5,18,0.00,0,,338
2013-1-5,46,36,26,37,29,25,100,74,46,30.40,30.34,30.27,10,10,10,8,3,,0.00,3,Rain,83
2013-1-6,46,40,35,41,37,32,100,90,66,30.30,30.24,30.17,10,8,3,9,1,,0.00,6,Rain,320
2013-1-7,51,40,30,34,31,28,100,79,47,30.40,30.33,30.29,10,10,7,12,4,,0.00,0,,342
2013-1-8,55,44,32,45,37,30,100,79,58,30.40,30.33,30.30,10,10,10,7,2,,0.00,5,,178
2013-1-9,53,50,48,54,49,45,100,94,82,30.43,30.38,30.33,10,6,2,8,2,,0.00,7,Rain,337
2013-1-10,66,58,50,57,52,50,100,88,68,30.42,30.33,30.17,10,8,4,25,3,31,0.00,8,Rain,139
2013-1-11,62,61,60,63,62,57,100,98,88,30.17,30.13,30.10,10,7,3,20,9,29,0.00,8,Rain,157
2013-1-12,71,66,62,64,62,59,100,90,69,30.15,30.09,30.03,10,10,7,9,5,,0.00,7,Rain,154
2013-1-13,68,64,60,63,60,59,100,88,73,30.09,30.02,29.97,10,9,2,13,7,20,0.05,7,Rain,153
2013-1-14,60,50,39,61,44,39,100,100,100,30.22,30.14,30.04,10,7,1,17,8,24,0.05,8,Rain,343
2013-1-15,42,40,39,43,42,39,100,100,100,30.15,30.07,29.99,10,6,1,9,4,,0.06,8,Rain,341
2013-1-16,50,46,42,50,46,43,100,100,100,30.05,30.00,29.93,10,9,3,10,2,,0.02,8,Rain,342
2013-1-17,44,38,33,45,40,32,100,98,81,30.29,29.92,29.69,10,8,2,28,13,41,0.02,7,Rain-Snow,347
2013-1-18,46,38,30,34,32,30,100,85,53,30.55,30.45,30.34,10,10,7,12,7,,0.00,0,,341
2013-1-19,51,40,28,34,31,28,100,79,41,30.45,30.34,30.23,10,8,0,8,2,,0.00,1,Fog,183
2013-1-20,59,44,28,37,34,28,100,81,42,30.24,30.18,30.12,10,10,5,10,1,,0.00,0,,345
2013-1-21,50,39,28,34,26,19,100,70,35,30.22,30.16,30.10,10,10,7,15,3,22,0.00,0,,331
2013-1-22,37,32,26,19,13,9,64,47,36,30.38,30.30,30.22,10,10,10,17,8,21,0.00,2,,343
2013-1-23,50,40,30,34,21,12,93,54,39,30.39,30.29,30.18,10,10,10,7,3,,0.00,5,,310
2013-1-24,46,38,30,41,24,10,93,57,38,30.38,30.29,30.17,10,10,10,21,6,29,0.00,2,,344
2013-1-25,35,32,30,36,26,12,100,77,38,30.38,30.24,30.14,10,8,3,14,4,21,0.00,8,Rain-Snow,160
2013-1-26,48,40,32,36,33,30,100,82,50,30.31,30.26,30.18,10,9,4,14,6,22,0.00,2,,338
2013-1-27,55,44,32,34,33,30,100,75,44,30.44,30.38,30.30,10,9,5,12,3,17,0.00,6,,167
2013-1-28,53,48,42,46,40,32,100,77,61,30.39,30.33,30.26,10,8,5,9,5,16,0.00,6,,179
2013-1-29,68,55,42,61,53,43,100,89,73,30.27,30.11,29.91,10,7,3,12,3,20,0.00,7,,167
2013-1-30,68,55,42,64,55,32,100,93,66,29.90,29.70,29.58,10,9,1,18,10,32,0.07,8,Rain-Thunderstorm,177
2013-1-31,46,40,33,32,27,23,81,63,43,30.13,30.05,29.84,10,10,10,15,7,25,0.00,3,,276